Time;durP1;ratioP1;P1;durP2;ratioP2;P2;SDS_P1;SDS_P2;PMS_P1;PMS_P2;Temp;Humidity;BMP_temperature;BMP_pressure;BME280_temperature;BME280_humidity;BME280_pressure;Samples;Min_cycle;Max_cycle;Signal;HPM_P1;HPM_P2
2024/02/21 00:00:12;;;;;;;8.32;1.75;;;;;;;8.56;100.00;101480.91;6097889;23;20156;-65
2024/02/21 00:02:40;;;;;;;2.30;2.10;;;;;;;8.56;100.00;101477.38;6071893;23;20259;-67
2024/02/21 00:05:09;;;;;;;2.90;1.88;;;;;;;8.55;100.00;101478.38;6096169;23;20172;-66
2024/02/21 00:07:38;;;;;;;2.17;1.98;;;;;;;8.55;100.00;101476.53;6096477;23;20497;-65
2024/02/21 00:10:08;;;;;;;6.05;1.95;;;;;;;8.44;100.00;101467.94;6096129;23;20608;-64
2024/02/21 00:12:37;;;;;;;7.38;1.77;;;;;;;8.51;100.00;101475.19;6095958;23;20174;-66
2024/02/21 00:15:08;;;;;;;1.80;1.55;;;;;;;8.56;100.00;101469.28;6096180;23;20563;-67
2024/02/21 00:17:37;;;;;;;13.75;2.28;;;;;;;8.61;100.00;101473.13;6096003;23;20155;-66
2024/02/21 00:20:08;;;;;;;2.00;1.48;;;;;;;8.58;100.00;101467.22;6097384;23;20183;-65
2024/02/21 00:22:37;;;;;;;2.35;1.17;;;;;;;8.55;100.00;101464.88;6099103;23;20162;-65
2024/02/21 00:25:06;;;;;;;2.63;1.83;;;;;;;8.57;100.00;101458.28;6072139;23;20199;-67
2024/02/21 00:27:35;;;;;;;2.10;1.27;;;;;;;8.54;100.00;101457.81;6098464;23;20148;-65
2024/02/21 00:30:05;;;;;;;2.75;1.70;;;;;;;8.53;100.00;101448.00;6099213;23;20168;-66
2024/02/21 00:32:35;;;;;;;1.92;1.25;;;;;;;8.55;100.00;101446.00;6098933;23;20179;-66
2024/02/21 00:35:05;;;;;;;2.38;1.50;;;;;;;8.62;100.00;101449.66;6098415;23;20231;-67
2024/02/21 00:37:34;;;;;;;2.38;2.10;;;;;;;8.61;100.00;101440.75;6098877;23;20179;-66
2024/02/21 00:40:03;;;;;;;12.13;3.47;;;;;;;8.57;100.00;101447.50;6098195;23;20195;-66
2024/02/21 00:42:31;;;;;;;3.17;1.92;;;;;;;8.49;100.00;101449.38;6098295;23;20170;-67
2024/02/21 00:45:00;;;;;;;4.63;1.42;;;;;;;8.45;100.00;101448.06;6098128;23;20160;-66
2024/02/21 00:47:29;;;;;;;2.90;2.15;;;;;;;8.52;100.00;101443.66;6097931;23;20152;-66
2024/02/21 00:49:59;;;;;;;2.13;1.75;;;;;;;8.58;100.00;101445.63;6097843;23;20668;-66
2024/02/21 00:52:28;;;;;;;1.38;1.27;;;;;;;8.50;100.00;101440.28;6072502;23;20163;-66
2024/02/21 00:54:57;;;;;;;1.70;1.60;;;;;;;8.46;100.00;101438.97;6099986;23;20186;-68
2024/02/21 00:57:25;;;;;;;5.53;1.50;;;;;;;8.49;100.00;101438.59;6101783;23;20180;-67
2024/02/21 00:59:54;;;;;;;2.90;1.83;;;;;;;8.51;100.00;101425.78;6100554;23;20191;-68
2024/02/21 01:02:23;;;;;;;7.72;2.80;;;;;;;8.36;100.00;101427.53;6099324;23;20161;-68
2024/02/21 01:04:52;;;;;;;1.95;1.35;;;;;;;8.33;100.00;101426.03;6098313;23;20160;-66
2024/02/21 01:07:22;;;;;;;3.00;1.92;;;;;;;8.27;100.00;101419.47;6097559;23;20167;-67
2024/02/21 01:09:51;;;;;;;1.10;1.00;;;;;;;8.32;100.00;101418.13;6097959;23;20188;-68
2024/02/21 01:12:19;;;;;;;4.15;1.80;;;;;;;8.25;100.00;101410.69;6097303;23;20159;-67
2024/02/21 01:14:49;;;;;;;1.80;1.70;;;;;;;8.27;100.00;101414.06;6097609;23;20203;-67
2024/02/21 01:17:18;;;;;;;2.22;1.85;;;;;;;8.34;100.00;101416.91;6097370;23;20214;-66
2024/02/21 01:19:47;;;;;;;1.35;1.23;;;;;;;8.21;100.00;101412.06;6097657;23;20210;-65
2024/02/21 01:22:17;;;;;;;2.00;1.90;;;;;;;8.26;100.00;101412.38;6097337;23;20167;-67
2024/02/21 01:24:47;;;;;;;0.90;0.80;;;;;;;8.27;100.00;101408.69;6097879;23;20152;-67
2024/02/21 01:27:16;;;;;;;2.28;1.58;;;;;;;8.48;100.00;101412.63;6098053;23;20164;-66
2024/02/21 01:29:46;;;;;;;3.47;2.78;;;;;;;8.45;100.00;101404.91;6097186;23;20187;-67
2024/02/21 01:32:15;;;;;;;1.50;1.02;;;;;;;8.38;100.00;101398.53;6096999;23;20616;-66
2024/02/21 01:34:44;;;;;;;1.25;1.00;;;;;;;8.43;100.00;101396.13;6097201;23;20179;-67
2024/02/21 01:37:13;;;;;;;2.10;1.50;;;;;;;8.63;100.00;101400.09;6097042;23;20238;-67
2024/02/21 01:39:41;;;;;;;3.03;1.27;;;;;;;8.39;100.00;101400.22;6071044;23;20250;-67
2024/02/21 01:42:11;;;;;;;2.10;1.55;;;;;;;8.47;100.00;101394.78;6097459;23;20211;-67
2024/02/21 01:44:41;;;;;;;2.08;1.40;;;;;;;8.52;100.00;101395.09;6096700;23;20589;-67
2024/02/21 01:47:11;;;;;;;3.72;1.45;;;;;;;8.56;100.00;101399.13;6071643;23;20172;-67
2024/02/21 01:49:40;;;;;;;1.60;1.50;;;;;;;8.47;100.00;101389.41;6096913;23;20203;-67
2024/02/21 01:52:09;;;;;;;2.00;1.33;;;;;;;8.47;100.00;101387.53;6097280;23;20525;-66
2024/02/21 01:54:39;;;;;;;1.58;1.08;;;;;;;8.52;100.00;101389.72;6097051;23;20248;-65
2024/02/21 01:57:08;;;;;;;2.50;1.10;;;;;;;8.55;99.59;101382.09;6096696;23;20163;-66
2024/02/21 01:59:38;;;;;;;3.65;1.25;;;;;;;8.54;99.62;101387.66;6096603;23;20183;-66
2024/02/21 02:02:07;;;;;;;1.40;1.10;;;;;;;8.50;99.64;101379.09;6097347;23;20271;-65
2024/02/21 02:04:36;;;;;;;4.47;1.30;;;;;;;8.51;100.00;101378.09;6096848;23;20186;-64
2024/02/21 02:08:05;;;;;;;1.92;0.75;;;;;;;8.63;98.72;101375.81;6096396;23;20246;-65
2024/02/21 02:10:34;;;;;;;16.65;2.38;;;;;;;8.56;98.74;101370.31;6097044;23;20544;-68
2024/02/21 02:13:03;;;;;;;2.60;1.33;;;;;;;8.53;99.74;101359.00;6096828;23;20230;-68
2024/02/21 02:15:41;;;;;;;1.20;0.70;;;;;;;8.55;100.00;101367.78;6096491;23;20218;-67
2024/02/21 02:18:10;;;;;;;14.23;1.52;;;;;;;8.47;100.00;101365.13;6096556;23;20215;-65
2024/02/21 02:20:39;;;;;;;3.90;2.15;;;;;;;8.44;100.00;101366.31;6096955;23;20190;-66
2024/02/21 02:23:11;;;;;;;2.15;1.58;;;;;;;8.44;100.00;101354.69;6096794;23;20561;-66
2024/02/21 02:25:41;;;;;;;3.08;2.88;;;;;;;8.30;100.00;101364.34;6096356;23;20175;-68
2024/02/21 02:28:10;;;;;;;2.45;0.80;;;;;;;8.39;100.00;101357.06;6096845;23;20183;-67
2024/02/21 02:30:39;;;;;;;3.80;1.88;;;;;;;8.25;100.00;101355.91;6072018;23;20198;-66
2024/02/21 02:33:07;;;;;;;1.52;1.17;;;;;;;8.22;100.00;101345.50;6097860;23;20148;-65
2024/02/21 02:35:37;;;;;;;2.33;1.25;;;;;;;8.22;100.00;101346.34;6098319;23;20179;-67
2024/02/21 02:38:06;;;;;;;6.32;1.60;;;;;;;8.19;100.00;101343.97;6098074;23;20578;-66
2024/02/21 02:40:35;;;;;;;3.55;1.60;;;;;;;8.10;100.00;101334.25;6097822;23;20520;-68
2024/02/21 02:43:06;;;;;;;2.47;1.80;;;;;;;8.15;100.00;101339.97;6097842;23;20155;-67
2024/02/21 02:45:34;;;;;;;2.42;2.08;;;;;;;8.13;100.00;101333.88;6096930;23;20489;-68
2024/02/21 02:48:04;;;;;;;1.92;1.40;;;;;;;8.11;100.00;101337.78;6096538;23;20696;-65
2024/02/21 02:50:33;;;;;;;1.50;1.40;;;;;;;8.08;100.00;101330.91;6095966;23;20334;-66
2024/02/21 02:53:02;;;;;;;8.93;2.28;;;;;;;8.10;100.00;101330.72;6097336;23;20516;-67
2024/02/21 02:55:31;;;;;;;5.22;2.25;;;;;;;8.03;100.00;101322.50;6096390;23;20175;-67
2024/02/21 02:58:00;;;;;;;1.40;1.10;;;;;;;8.02;100.00;101323.53;6096353;23;20648;-67
2024/02/21 03:00:30;;;;;;;1.23;0.77;;;;;;;7.87;100.00;101319.88;6096654;23;20167;-67
2024/02/21 03:02:59;;;;;;;1.27;0.95;;;;;;;8.00;100.00;101316.59;6096728;23;20548;-67
2024/02/21 03:05:28;;;;;;;2.60;1.25;;;;;;;7.91;100.00;101315.81;6096955;23;20148;-66
2024/02/21 03:07:57;;;;;;;3.75;1.67;;;;;;;7.87;100.00;101303.69;6096355;23;20187;-66
2024/02/21 03:10:26;;;;;;;1.52;1.38;;;;;;;7.91;100.00;101299.63;6096671;23;20215;-65
2024/02/21 03:12:54;;;;;;;2.85;2.08;;;;;;;7.88;100.00;101294.59;6096824;23;20537;-66
2024/02/21 03:15:23;;;;;;;2.03;1.63;;;;;;;7.82;100.00;101289.91;6096428;23;20182;-66
2024/02/21 03:17:53;;;;;;;1.10;0.93;;;;;;;7.78;100.00;101291.28;6096902;23;20186;-67
2024/02/21 03:20:23;;;;;;;4.82;2.88;;;;;;;7.82;100.00;101289.91;6096222;23;20159;-65
2024/02/21 03:22:51;;;;;;;10.00;2.55;;;;;;;7.84;100.00;101288.72;6096134;23;20173;-67
2024/02/21 03:25:21;;;;;;;3.33;1.20;;;;;;;7.87;100.00;101292.94;6096559;23;20222;-66
2024/02/21 03:27:50;;;;;;;1.00;0.85;;;;;;;7.87;100.00;101287.53;6096345;23;20596;-67
2024/02/21 03:30:19;;;;;;;2.33;1.73;;;;;;;7.83;100.00;101291.59;6096837;23;20183;-66
2024/02/21 03:32:47;;;;;;;1.33;0.65;;;;;;;7.70;100.00;101285.91;6097110;23;20151;-67
2024/02/21 03:35:18;;;;;;;2.15;1.98;;;;;;;7.74;100.00;101292.66;6097328;23;20182;-63
2024/02/21 03:37:46;;;;;;;2.72;1.20;;;;;;;7.80;100.00;101294.63;6097318;23;20180;-66
2024/02/21 03:40:15;;;;;;;7.90;2.22;;;;;;;7.71;100.00;101282.19;6097546;23;20219;-66
2024/02/21 03:42:44;;;;;;;3.28;1.73;;;;;;;7.72;100.00;101273.94;6096703;23;20167;-67
2024/02/21 03:45:13;;;;;;;1.02;0.93;;;;;;;7.72;100.00;101273.09;6096963;23;20601;-64
2024/02/21 03:47:41;;;;;;;1.30;1.08;;;;;;;7.73;100.00;101270.25;6096879;23;20159;-67
2024/02/21 03:50:10;;;;;;;7.10;2.03;;;;;;;7.73;100.00;101261.31;6096425;23;20168;-66
2024/02/21 03:52:40;;;;;;;7.85;1.92;;;;;;;7.64;100.00;101259.69;6096875;23;20160;-66
2024/02/21 03:55:10;;;;;;;7.53;1.88;;;;;;;7.55;100.00;101264.22;6096472;23;20211;-65
2024/02/21 03:57:39;;;;;;;2.63;1.77;;;;;;;7.62;100.00;101257.16;6096722;23;20167;-65
2024/02/21 04:00:11;;;;;;;3.63;3.33;;;;;;;7.65;100.00;101259.50;6097108;23;20148;-65
2024/02/21 04:02:40;;;;;;;2.92;2.28;;;;;;;7.66;100.00;101258.47;6097587;23;20213;-66
2024/02/21 04:05:10;;;;;;;5.28;2.85;;;;;;;7.65;100.00;101259.50;6098526;23;20156;-66
2024/02/21 04:07:42;;;;;;;4.60;2.30;;;;;;;7.81;100.00;101250.50;6098132;23;20152;-66
2024/02/21 04:10:11;;;;;;;9.90;1.30;;;;;;;7.67;100.00;101241.31;6098498;23;20152;-66
2024/02/21 04:12:39;;;;;;;4.97;1.58;;;;;;;7.80;100.00;101243.44;6098725;23;20152;-67
2024/02/21 04:15:09;;;;;;;1.40;1.30;;;;;;;7.82;100.00;101236.03;6097916;23;20175;-64
2024/02/21 04:17:38;;;;;;;5.30;1.83;;;;;;;7.78;100.00;101229.31;6098165;23;20635;-67
2024/02/21 04:20:14;;;;;;;8.30;2.08;;;;;;;7.68;100.00;101220.59;6097912;23;20624;-66
2024/02/21 04:22:45;;;;;;;2.00;1.83;;;;;;;7.78;100.00;101219.38;6097656;23;20235;-65
2024/02/21 04:25:14;;;;;;;2.05;1.85;;;;;;;7.81;100.00;101215.47;6097821;23;20148;-66
2024/02/21 04:27:43;;;;;;;5.53;1.42;;;;;;;7.80;100.00;101206.56;6098193;23;20174;-66
2024/02/21 04:30:12;;;;;;;1.52;1.38;;;;;;;7.85;100.00;101203.31;6098297;23;20609;-67
2024/02/21 04:32:41;;;;;;;8.40;2.22;;;;;;;7.78;100.00;101197.81;6098227;23;20564;-67
2024/02/21 04:35:10;;;;;;;1.75;1.15;;;;;;;7.88;100.00;101192.22;6099027;23;20182;-64
2024/02/21 04:37:38;;;;;;;1.90;1.45;;;;;;;7.88;100.00;101186.81;6098404;23;20242;-65
2024/02/21 04:40:10;;;;;;;6.43;1.70;;;;;;;7.77;100.00;101173.75;6072207;23;20619;-64
2024/02/21 04:42:39;;;;;;;2.28;1.60;;;;;;;7.79;100.00;101174.41;6098254;23;20159;-67
2024/02/21 04:45:08;;;;;;;2.75;1.73;;;;;;;7.79;100.00;101171.72;6098087;23;20616;-66
2024/02/21 04:47:37;;;;;;;2.53;1.70;;;;;;;7.81;100.00;101169.69;6097801;23;20612;-65
2024/02/21 04:50:06;;;;;;;2.28;2.03;;;;;;;7.99;100.00;101172.91;6097892;23;20174;-66
2024/02/21 04:52:35;;;;;;;4.93;2.63;;;;;;;7.82;100.00;101169.50;6098068;23;20167;-65
2024/02/21 04:55:05;;;;;;;6.13;1.40;;;;;;;7.78;100.00;101159.28;6098122;23;20244;-67
2024/02/21 04:57:35;;;;;;;1.45;1.17;;;;;;;7.93;100.00;101162.88;6097811;23;20174;-68
2024/02/21 05:00:05;;;;;;;9.18;1.73;;;;;;;7.78;100.00;101165.50;6097989;23;20152;-65
2024/02/21 05:02:34;;;;;;;5.82;2.97;;;;;;;7.86;100.00;101159.22;6097808;23;20478;-67
2024/02/21 05:05:03;;;;;;;7.47;2.80;;;;;;;7.68;100.00;101158.66;6098544;23;20636;-68
2024/02/21 05:07:32;;;;;;;4.13;3.78;;;;;;;7.74;100.00;101164.19;6099057;23;20171;-66
2024/02/21 05:10:04;;;;;;;3.22;1.95;;;;;;;7.92;100.00;101161.19;6098196;23;20230;-66
2024/02/21 05:12:32;;;;;;;2.25;1.48;;;;;;;7.98;100.00;101165.88;6097997;23;20167;-67
2024/02/21 05:15:03;;;;;;;16.40;2.58;;;;;;;7.97;100.00;101163.34;6097374;23;20179;-67
2024/02/21 05:17:31;;;;;;;5.15;2.65;;;;;;;7.87;100.00;101158.19;6097756;23;20543;-67
2024/02/21 05:20:00;;;;;;;2.85;2.25;;;;;;;7.89;100.00;101158.84;6098925;23;20636;-66
2024/02/21 05:22:29;;;;;;;11.32;2.60;;;;;;;7.89;100.00;101153.44;6098395;23;20167;-67
2024/02/21 05:24:58;;;;;;;10.13;2.30;;;;;;;7.94;100.00;101153.75;6098229;23;20234;-66
2024/02/21 05:27:26;;;;;;;2.47;1.70;;;;;;;7.92;100.00;101150.41;6098215;23;20159;-66
2024/02/21 05:29:55;;;;;;;4.70;2.92;;;;;;;7.89;100.00;101152.63;6097855;23;20530;-65
2024/02/21 05:32:26;;;;;;;7.93;3.03;;;;;;;7.73;100.00;101145.50;6097488;23;20562;-67
2024/02/21 05:34:55;;;;;;;1.88;1.77;;;;;;;7.89;100.00;101156.16;6097668;23;20156;-66
2024/02/21 05:37:24;;;;;;;1.75;1.65;;;;;;;7.88;100.00;101159.88;6097563;23;20226;-65
2024/02/21 05:39:53;;;;;;;16.15;2.67;;;;;;;7.97;100.00;101164.19;6096943;23;20187;-65
2024/02/21 05:42:22;;;;;;;14.50;2.85;;;;;;;7.92;100.00;101155.81;6097531;23;20156;-67
2024/02/21 05:44:50;;;;;;;3.08;1.73;;;;;;;7.93;100.00;101145.88;6097090;23;20192;-67
2024/02/21 05:47:20;;;;;;;4.28;1.95;;;;;;;7.78;100.00;101153.88;6097355;23;20164;-67
2024/02/21 05:49:53;;;;;;;7.25;2.25;;;;;;;7.80;100.00;101154.53;6097700;23;20200;-67
2024/02/21 05:52:23;;;;;;;10.68;1.88;;;;;;;7.74;100.00;101131.84;6097350;23;20156;-67
2024/02/21 05:54:52;;;;;;;2.80;2.60;;;;;;;7.77;100.00;101136.03;6097036;23;20158;-67
2024/02/21 05:57:20;;;;;;;4.53;2.05;;;;;;;7.94;100.00;101121.41;6096716;23;20243;-66
2024/02/21 05:59:49;;;;;;;4.03;2.40;;;;;;;8.02;100.00;101137.53;6096848;23;20655;-66
2024/02/21 06:02:18;;;;;;;3.05;2.35;;;;;;;7.84;100.00;101131.63;6097414;23;20211;-66
2024/02/21 06:04:47;;;;;;;2.53;1.77;;;;;;;7.94;100.00;101131.38;6097455;23;20167;-67
2024/02/21 06:07:18;;;;;;;1.67;1.42;;;;;;;7.89;100.00;101125.69;6097568;23;20251;-66
2024/02/21 06:09:46;;;;;;;17.50;3.42;;;;;;;7.87;100.00;101133.94;6097470;23;20191;-66
2024/02/21 06:12:15;;;;;;;5.53;2.70;;;;;;;7.88;100.00;101127.53;6096688;23;20156;-66
2024/02/21 06:14:44;;;;;;;7.40;3.55;;;;;;;7.93;100.00;101119.75;6096450;23;20159;-66
2024/02/21 06:17:31;;;;;;;3.20;2.53;;;;;;;7.98;100.00;101121.91;6096072;23;20184;-67
2024/02/21 06:20:00;;;;;;;4.82;2.53;;;;;;;7.97;100.00;101121.06;6096179;23;20190;-66
2024/02/21 06:22:32;;;;;;;5.80;3.63;;;;;;;8.01;100.00;101121.53;6096093;23;20195;-68
2024/02/21 06:25:01;;;;;;;6.03;3.15;;;;;;;8.06;100.00;101125.38;6096595;23;20155;-66
2024/02/21 06:27:30;;;;;;;2.78;2.40;;;;;;;8.04;100.00;101122.03;6096495;23;20164;-67
2024/02/21 06:29:59;;;;;;;2.22;2.03;;;;;;;8.11;100.00;101117.59;6096463;23;20183;-67
2024/02/21 06:32:27;;;;;;;3.22;2.10;;;;;;;7.94;100.00;101110.63;6096375;23;20151;-66
2024/02/21 06:34:56;;;;;;;13.60;2.85;;;;;;;8.06;100.00;101119.16;6096419;23;20160;-67
2024/02/21 06:37:25;;;;;;;4.25;3.13;;;;;;;8.09;100.00;101119.63;6096280;23;20171;-67
2024/02/21 06:39:55;;;;;;;3.92;3.55;;;;;;;8.14;100.00;101129.84;6096253;23;20210;-66
2024/02/21 06:42:26;;;;;;;2.65;2.20;;;;;;;8.13;100.00;101126.31;6071363;23;20171;-67
2024/02/21 06:44:56;;;;;;;14.80;3.15;;;;;;;8.21;100.00;101120.03;6096625;23;20163;-64
2024/02/21 06:47:25;;;;;;;12.45;2.65;;;;;;;8.12;100.00;101129.22;6096580;23;20148;-67
2024/02/21 06:49:53;;;;;;;4.63;2.65;;;;;;;8.17;100.00;101133.06;6096264;23;20195;-65
2024/02/21 06:52:23;;;;;;;2.00;1.52;;;;;;;8.27;100.00;101133.66;6096462;23;20167;-67
2024/02/21 06:54:52;;;;;;;2.92;1.73;;;;;;;8.31;100.00;101138.69;6096590;23;20675;-66
2024/02/21 06:57:22;;;;;;;5.47;2.10;;;;;;;8.33;100.00;101136.69;6096327;23;20193;-66
2024/02/21 06:59:51;;;;;;;14.65;2.80;;;;;;;8.36;100.00;101130.91;6096260;23;20195;-67
2024/02/21 07:02:19;;;;;;;4.30;2.83;;;;;;;8.28;100.00;101129.91;6095538;23;20546;-69
2024/02/21 07:04:52;;;;;;;2.97;2.63;;;;;;;8.18;100.00;101139.28;6096569;23;20167;-64
2024/02/21 07:07:20;;;;;;;4.75;2.72;;;;;;;8.24;100.00;101139.38;6097916;23;20483;-64
2024/02/21 07:09:49;;;;;;;3.38;2.13;;;;;;;8.28;100.00;101129.91;6101280;23;20186;-68
2024/02/21 07:12:18;;;;;;;3.28;1.92;;;;;;;8.39;100.00;101131.38;6099414;23;20163;-66
2024/02/21 07:14:49;;;;;;;2.17;1.85;;;;;;;8.35;100.00;101132.75;6100171;23;20160;-67
2024/02/21 07:17:17;;;;;;;2.20;1.80;;;;;;;8.34;100.00;101136.47;6076340;23;20670;-68
2024/02/21 07:19:46;;;;;;;11.70;2.63;;;;;;;8.34;100.00;101132.94;6099515;23;20187;-66
2024/02/21 07:22:15;;;;;;;3.92;1.90;;;;;;;8.37;100.00;101135.28;6098594;23;20170;-67
2024/02/21 07:24:43;;;;;;;2.83;2.20;;;;;;;8.35;100.00;101134.63;6099232;23;20183;-68
2024/02/21 07:27:14;;;;;;;3.67;3.35;;;;;;;8.26;100.00;101126.56;6100019;23;20235;-67
2024/02/21 07:29:47;;;;;;;4.32;2.67;;;;;;;8.38;100.00;101118.91;6099935;23;20183;-67
2024/02/21 07:32:17;;;;;;;2.63;2.20;;;;;;;8.60;100.00;101130.69;6099955;23;20160;-67
2024/02/21 07:34:46;;;;;;;7.03;2.75;;;;;;;8.69;100.00;101118.78;6100779;23;20168;-68
2024/02/21 07:37:15;;;;;;;13.65;3.40;;;;;;;8.65;100.00;101125.56;6101331;23;20249;-67
2024/02/21 07:39:44;;;;;;;6.70;2.70;;;;;;;8.62;100.00;101125.91;6102396;23;20203;-67
2024/02/21 07:42:12;;;;;;;3.20;1.88;;;;;;;8.61;100.00;101122.41;6101480;23;20194;-66
2024/02/21 07:44:41;;;;;;;3.08;2.50;;;;;;;8.50;100.00;101122.84;6102515;23;20195;-67
2024/02/21 07:47:10;;;;;;;7.15;2.40;;;;;;;8.64;100.00;101129.28;6100722;23;20160;-67
2024/02/21 07:49:45;;;;;;;2.03;1.40;;;;;;;8.61;100.00;101130.50;6099849;23;20528;-66
2024/02/21 07:52:13;;;;;;;4.40;2.80;;;;;;;8.54;100.00;101123.31;6099971;23;20547;-66
2024/02/21 07:54:43;;;;;;;6.45;2.03;;;;;;;8.64;100.00;101132.81;6099147;23;20155;-67
2024/02/21 07:57:11;;;;;;;2.25;1.45;;;;;;;8.61;100.00;101130.50;6098338;23;20637;-66
2024/02/21 07:59:40;;;;;;;5.22;2.67;;;;;;;8.67;100.00;101134.31;6098564;23;20191;-66
2024/02/21 08:02:09;;;;;;;2.75;2.45;;;;;;;8.65;100.00;101130.97;6098371;23;20203;-65
2024/02/21 08:04:38;;;;;;;4.75;2.08;;;;;;;8.80;100.00;101118.34;6098353;23;20156;-65
2024/02/21 08:07:09;;;;;;;2.58;1.77;;;;;;;8.68;100.00;101125.19;6098654;23;20617;-67
2024/02/21 08:09:40;;;;;;;5.10;2.80;;;;;;;8.72;100.00;101129.19;6097636;23;20244;-64
2024/02/21 08:12:09;;;;;;;2.20;1.58;;;;;;;8.79;100.00;101122.06;6097866;23;20156;-64
2024/02/21 08:14:37;;;;;;;2.83;1.23;;;;;;;8.76;100.00;101122.44;6097675;23;20203;-67
2024/02/21 08:17:06;;;;;;;4.80;2.75;;;;;;;8.66;100.00;101111.06;6097719;23;20659;-66
2024/02/21 08:19:35;;;;;;;5.22;2.13;;;;;;;8.90;100.00;101115.38;6098168;23;20184;-65
2024/02/21 08:22:04;;;;;;;4.75;2.33;;;;;;;8.92;100.00;101121.41;6098011;23;20174;-65
2024/02/21 08:24:34;;;;;;;7.13;1.88;;;;;;;8.97;100.00;101117.13;6097983;23;20617;-68
2024/02/21 08:27:03;;;;;;;8.20;3.15;;;;;;;9.06;100.00;101113.28;6098325;23;20652;-68
2024/02/21 08:29:32;;;;;;;4.30;2.45;;;;;;;9.16;100.00;101113.84;6097902;23;20190;-67
2024/02/21 08:32:01;;;;;;;3.15;2.15;;;;;;;9.11;100.00;101113.56;6097600;23;20155;-68
2024/02/21 08:34:33;;;;;;;7.38;2.35;;;;;;;9.15;100.00;101112.16;6098055;23;20504;-67
2024/02/21 08:41:36;;;;;;;2.53;1.27;;;;;;;9.65;100.00;101110.50;6097795;23;20158;-67
2024/02/21 08:44:25;;;;;;;4.20;3.63;;;;;;;9.51;100.00;101111.38;6097683;23;20183;-65
2024/02/21 08:46:55;;;;;;;4.60;2.03;;;;;;;9.60;100.00;101111.06;6097837;23;20162;-67
2024/02/21 08:49:27;;;;;;;5.45;2.70;;;;;;;9.77;100.00;101117.09;6097442;23;20198;-68
2024/02/21 08:52:01;;;;;;;2.30;1.58;;;;;;;9.86;100.00;101115.94;6072283;23;20167;-65
2024/02/21 08:54:31;;;;;;;15.00;2.37;;;;;;;9.70;100.00;101108.06;6098099;23;20627;-65
2024/02/21 08:57:03;;;;;;;3.08;2.88;;;;;;;9.89;100.00;101114.69;6097683;23;20433;-67
2024/02/21 08:59:32;;;;;;;2.30;1.73;;;;;;;9.72;100.00;101118.69;6097601;23;20190;-66
2024/02/21 09:02:02;;;;;;;3.00;1.95;;;;;;;9.71;100.00;101117.00;6097869;23;20375;-66
2024/02/21 09:04:31;;;;;;;3.42;2.17;;;;;;;9.92;100.00;101127.84;6096902;23;20527;-65
2024/02/21 09:07:01;;;;;;;3.00;2.35;;;;;;;9.94;100.00;101123.06;6096614;23;20156;-66
2024/02/21 09:09:31;;;;;;;3.10;1.60;;;;;;;9.97;100.00;101120.81;6096630;23;20652;-67
2024/02/21 09:12:05;;;;;;;2.30;1.77;;;;;;;10.04;99.58;101129.84;6096825;23;20418;-66
2024/02/21 09:14:35;;;;;;;4.00;2.10;;;;;;;9.93;99.21;101122.22;6096120;23;20379;-66
2024/02/21 09:17:03;;;;;;;2.85;2.30;;;;;;;9.82;99.65;101119.22;6096456;23;20879;-64
2024/02/21 09:19:32;;;;;;;13.53;3.40;;;;;;;9.74;100.00;101112.03;6096681;23;20198;-64
2024/02/21 09:22:01;;;;;;;2.70;1.67;;;;;;;9.78;100.00;101121.44;6097473;23;20846;-65
2024/02/21 09:24:30;;;;;;;9.67;3.50;;;;;;;9.79;100.00;101109.59;6096612;23;20462;-65
2024/02/21 09:26:59;;;;;;;1.73;1.43;;;;;;;9.74;100.00;101105.81;6096578;23;20400;-64
2024/02/21 09:29:30;;;;;;;11.27;3.63;;;;;;;9.91;100.00;101101.84;6096630;23;20450;-62
2024/02/21 09:31:59;;;;;;;7.33;4.43;;;;;;;9.87;99.03;101097.84;6096213;23;20379;-66
2024/02/21 09:34:28;;;;;;;5.63;3.23;;;;;;;9.81;99.58;101096.75;6095989;23;20419;-65
2024/02/21 09:36:58;;;;;;;5.50;2.25;;;;;;;10.11;98.44;101091.22;6096864;23;20488;-64
2024/02/21 09:39:30;;;;;;;4.47;2.30;;;;;;;10.30;96.46;101090.59;6096584;23;20192;-65
2024/02/21 09:42:06;;;;;;;9.50;3.00;;;;;;;10.42;95.79;101089.00;6070905;23;20408;-64
2024/02/21 09:44:38;;;;;;;6.60;3.90;;;;;;;10.66;94.62;101093.97;6095850;23;20474;-64
2024/02/21 09:47:12;;;;;;;3.10;1.80;;;;;;;10.76;93.45;101086.34;6095802;23;20399;-66
2024/02/21 09:49:43;;;;;;;4.30;2.80;;;;;;;10.85;93.63;101084.28;6095651;23;20425;-66
2024/02/21 09:52:16;;;;;;;4.00;2.80;;;;;;;10.84;92.23;101088.88;6070258;23;20729;-66
2024/02/21 09:54:45;;;;;;;5.17;2.70;;;;;;;10.56;93.16;101084.50;6095959;23;20398;-66
2024/02/21 09:57:16;;;;;;;4.57;3.33;;;;;;;10.49;93.67;101092.59;6095632;23;20451;-66
2024/02/21 09:59:46;;;;;;;4.27;3.53;;;;;;;10.44;94.49;101089.66;6095938;23;20435;-66
2024/02/21 10:02:15;;;;;;;3.53;2.97;;;;;;;10.51;94.63;101090.53;6096127;23;20773;-65
2024/02/21 10:04:44;;;;;;;7.60;2.70;;;;;;;10.67;94.08;101092.94;6096207;23;20411;-64
2024/02/21 10:07:14;;;;;;;13.03;4.30;;;;;;;10.60;93.44;101094.75;6097598;23;20426;-66
2024/02/21 10:09:45;;;;;;;13.53;5.27;;;;;;;10.59;93.52;101095.81;6098174;23;20382;-66
2024/02/21 10:12:15;;;;;;;5.00;4.47;;;;;;;10.66;93.36;101085.84;6098132;23;20384;-66
2024/02/21 10:14:45;;;;;;;15.10;4.00;;;;;;;10.61;93.00;101093.72;6098332;23;20372;-65
2024/02/21 10:17:19;;;;;;;3.03;2.30;;;;;;;10.90;91.90;101087.25;6098129;23;20376;-66
2024/02/21 10:19:48;;;;;;;6.90;4.20;;;;;;;10.77;91.87;101092.59;6099466;23;20427;-64
2024/02/21 10:22:20;;;;;;;4.40;2.83;;;;;;;10.77;92.40;101098.00;6098568;23;20910;-66
2024/02/21 10:24:49;;;;;;;3.33;2.33;;;;;;;10.94;91.78;101101.25;6098141;23;20386;-65
2024/02/21 10:27:17;;;;;;;5.43;3.50;;;;;;;11.17;90.73;101085.53;6098689;23;20872;-66
2024/02/21 10:29:51;;;;;;;5.00;3.83;;;;;;;11.26;90.04;101097.84;6098237;23;20414;-65
2024/02/21 10:32:20;;;;;;;3.10;2.53;;;;;;;11.40;88.59;101093.31;6098756;23;20463;-65
2024/02/21 10:34:51;;;;;;;7.20;2.80;;;;;;;11.56;88.09;101099.22;6098996;23;20884;-66
2024/02/21 10:37:22;;;;;;;4.83;3.57;;;;;;;11.43;87.57;101093.75;6098318;23;20390;-65
2024/02/21 10:39:51;;;;;;;2.70;2.20;;;;;;;11.47;87.33;101103.16;6097785;23;20405;-67
2024/02/21 10:42:22;;;;;;;14.73;3.77;;;;;;;11.02;88.93;101090.22;6097503;23;20403;-67
2024/02/21 10:44:54;;;;;;;2.67;2.30;;;;;;;11.09;90.05;101086.50;6098763;23;20359;-65
2024/02/21 10:47:26;;;;;;;4.83;2.23;;;;;;;10.85;91.37;101079.72;6096143;23;20453;-65
2024/02/21 10:50:04;;;;;;;2.80;2.10;;;;;;;10.96;91.07;101075.63;6096121;23;20569;-66
2024/02/21 10:52:46;;;;;;;3.57;2.33;;;;;;;11.06;91.05;101075.25;6096522;23;20384;-64
2024/02/21 10:55:23;;;;;;;3.70;2.97;;;;;;;11.02;91.12;101074.00;6096325;23;20427;-65
2024/02/21 10:57:52;;;;;;;5.70;3.13;;;;;;;10.92;91.99;101070.81;6096456;23;20390;-65
2024/02/21 11:00:27;;;;;;;3.17;2.60;;;;;;;10.56;93.78;101074.53;6096172;23;20401;-66
2024/02/21 11:02:56;;;;;;;4.10;3.17;;;;;;;10.55;94.90;101072.03;6096580;23;20372;-65
2024/02/21 11:05:25;;;;;;;5.07;2.60;;;;;;;10.66;96.50;101063.34;6096951;23;20351;-65
2024/02/21 11:07:54;;;;;;;8.60;2.97;;;;;;;10.59;96.68;101068.75;6096904;23;20391;-64
2024/02/21 11:10:25;;;;;;;4.33;2.60;;;;;;;10.76;96.72;101048.44;6097582;23;20430;-64
2024/02/21 11:12:55;;;;;;;6.40;2.80;;;;;;;11.04;95.78;101040.25;6096416;23;20841;-65
2024/02/21 11:15:28;;;;;;;3.10;2.13;;;;;;;11.14;94.64;101039.88;6097381;23;20427;-66
2024/02/21 11:17:57;;;;;;;4.70;2.90;;;;;;;11.30;93.32;101039.50;6096082;23;20438;-67
2024/02/21 11:20:37;;;;;;;3.30;2.67;;;;;;;11.30;93.25;101037.66;6096306;23;20905;-66
2024/02/21 11:23:06;;;;;;;2.00;1.63;;;;;;;11.21;91.68;101025.31;6096695;23;20372;-62
2024/02/21 11:25:35;;;;;;;2.30;2.03;;;;;;;11.35;91.52;101023.47;6096096;23;20910;-65
2024/02/21 11:28:06;;;;;;;4.90;2.47;;;;;;;11.66;90.85;101021.06;6096310;23;20411;-66
2024/02/21 11:35:03;;;;;;;17.13;2.73;;;;;;;11.84;88.03;101017.78;6096343;23;20455;-67
2024/02/21 11:37:36;;;;;;;4.33;2.70;;;;;;;12.27;86.47;101004.63;6095971;23;20379;-66
2024/02/21 11:40:09;;;;;;;2.70;2.40;;;;;;;12.77;84.46;101004.94;6095971;23;20471;-66
2024/02/21 11:42:40;;;;;;;3.20;2.90;;;;;;;12.85;82.86;100997.38;6095663;23;20391;-66
2024/02/21 11:45:10;;;;;;;7.57;2.27;;;;;;;12.36;84.45;100999.81;6095562;23;20366;-64